Time;durP1;ratioP1;P1;durP2;ratioP2;P2;SDS_P1;SDS_P2;PMS_P1;PMS_P2;Temp;Humidity;BMP_temperature;BMP_pressure;BME280_temperature;BME280_humidity;BME280_pressure;Samples;Min_cycle;Max_cycle;Signal;HPM_P1;HPM_P2
2023/10/02 00:01:23;;;;;;;20.90;11.77;;;17.50;99.90;;;;;;5073788;28;20554;-69
2023/10/02 00:04:16;;;;;;;23.97;12.63;;;17.50;99.90;;;;;;5073215;28;20048;-69
2023/10/02 00:06:39;;;;;;;22.40;13.57;;;17.50;99.90;;;;;;5073989;28;20044;-69
2023/10/02 00:09:04;;;;;;;24.63;14.17;;;17.50;99.90;;;;;;5074054;28;20199;-69
2023/10/02 00:11:45;;;;;;;24.70;13.90;;;17.50;99.90;;;;;;5074120;28;20070;-69
2023/10/02 00:14:18;;;;;;;22.43;14.07;;;17.50;99.90;;;;;;5074630;28;20040;-69
2023/10/02 00:16:59;;;;;;;24.53;14.37;;;17.60;99.90;;;;;;5073836;28;20048;-69
2023/10/02 00:19:47;;;;;;;27.00;13.20;;;17.60;99.90;;;;;;5072503;28;20052;-69
2023/10/02 00:25:04;;;;;;;23.60;14.93;;;17.60;99.90;;;;;;5073848;28;20493;-70
2023/10/02 00:27:29;;;;;;;27.50;16.00;;;17.60;99.90;;;;;;5074342;28;20132;-69
2023/10/02 00:29:58;;;;;;;28.33;16.37;;;17.60;99.90;;;;;;5073953;28;20080;-69
2023/10/02 00:32:29;;;;;;;26.80;15.90;;;17.60;99.90;;;;;;5074330;28;20052;-69
2023/10/02 00:34:58;;;;;;;23.10;15.37;;;17.60;99.90;;;;;;5073749;28;20527;-69
2023/10/02 00:37:43;;;;;;;25.80;15.07;;;17.50;99.90;;;;;;5072446;28;20049;-69
2023/10/02 00:40:22;;;;;;;24.30;15.13;;;17.50;99.90;;;;;;5073747;28;20053;-69
2023/10/02 00:42:59;;;;;;;25.77;16.30;;;17.50;99.90;;;;;;5074205;28;20077;-69
2023/10/02 00:45:38;;;;;;;24.87;15.67;;;17.40;99.90;;;;;;5073650;28;20489;-69
2023/10/02 00:50:54;;;;;;;27.83;16.43;;;17.40;99.90;;;;;;5073525;28;20485;-69
2023/10/02 00:53:39;;;;;;;26.03;16.47;;;17.40;99.90;;;;;;5073534;28;20473;-69
2023/10/02 00:56:24;;;;;;;25.65;15.48;;;17.40;99.90;;;;;;5073127;28;20504;-69
2023/10/02 00:58:57;;;;;;;24.98;14.93;;;17.40;99.90;;;;;;5073496;28;20044;-69
2023/10/02 01:01:24;;;;;;;26.43;16.40;;;17.40;99.90;;;;;;5074003;28;20041;-69
2023/10/02 01:04:23;;;;;;;25.90;15.80;;;17.40;99.90;;;;;;5079757;28;20135;-69
2023/10/02 01:07:11;;;;;;;29.37;17.97;;;17.40;99.90;;;;;;5080041;28;20093;-69
2023/10/02 01:09:39;;;;;;;26.60;16.53;;;17.30;99.90;;;;;;5080896;28;20093;-69
2023/10/02 01:12:10;;;;;;;25.43;16.27;;;17.30;99.90;;;;;;5079968;28;20386;-69
2023/10/02 01:14:47;;;;;;;28.60;17.63;;;17.30;99.90;;;;;;5080052;28;20044;-69
2023/10/02 01:17:17;;;;;;;24.87;16.20;;;17.40;99.90;;;;;;5079852;28;20047;-69
2023/10/02 01:19:57;;;;;;;27.83;17.00;;;17.40;99.90;;;;;;5079955;28;20052;-69
2023/10/02 01:22:42;;;;;;;29.43;15.03;;;17.40;99.90;;;;;;5080420;28;20396;-69
2023/10/02 01:25:17;;;;;;;;;;;17.40;99.90;;;;;;5080894;28;20041;-69
2023/10/02 01:27:50;;;;;;;25.10;15.03;;;17.40;99.90;;;;;;5080734;28;20045;-69
2023/10/02 01:30:18;;;;;;;28.07;15.63;;;17.40;99.90;;;;;;5080342;28;20048;-69
2023/10/02 01:33:11;;;;;;;28.57;16.63;;;17.40;99.90;;;;;;5079843;28;20063;-69
2023/10/02 01:35:46;;;;;;;25.83;16.10;;;17.30;99.90;;;;;;5079805;28;20101;-69
2023/10/02 01:38:13;;;;;;;31.38;17.17;;;17.30;99.90;;;;;;5079404;28;20377;-70
2023/10/02 01:40:42;;;;;;;29.40;16.30;;;17.30;99.90;;;;;;5079739;28;20048;-69
2023/10/02 01:43:13;;;;;;;28.70;17.13;;;17.30;99.90;;;;;;5079624;28;20064;-69
2023/10/02 01:45:43;;;;;;;24.57;15.57;;;17.30;99.90;;;;;;5080817;28;20055;-69
2023/10/02 01:48:36;;;;;;;25.03;16.30;;;17.30;99.90;;;;;;5078450;28;20048;-70
2023/10/02 01:51:26;;;;;;;29.83;17.90;;;17.40;99.90;;;;;;5080530;28;20071;-69
2023/10/02 01:53:54;;;;;;;29.30;16.10;;;17.40;99.90;;;;;;5079982;28;20051;-69
2023/10/02 01:56:22;;;;;;;26.20;16.47;;;17.30;99.90;;;;;;5078478;28;20056;-69
2023/10/02 01:58:50;;;;;;;28.07;17.03;;;17.30;99.90;;;;;;5079567;28;20044;-69
2023/10/02 02:01:16;;;;;;;25.17;15.97;;;17.30;99.90;;;;;;5079551;28;20052;-69
2023/10/02 02:03:48;;;;;;;31.90;17.80;;;17.40;99.90;;;;;;5079536;28;20094;-69
2023/10/02 02:06:22;;;;;;;26.90;17.43;;;17.40;99.90;;;;;;5079418;28;20044;-69
2023/10/02 02:08:52;;;;;;;30.17;17.97;;;17.30;99.90;;;;;;5079227;28;20523;-69
2023/10/02 02:11:23;;;;;;;31.23;19.87;;;17.30;99.90;;;;;;5079914;28;20380;-69
2023/10/02 02:13:59;;;;;;;29.37;18.27;;;17.20;99.90;;;;;;5076984;28;20068;-69
2023/10/02 02:16:33;;;;;;;28.60;18.30;;;17.20;99.90;;;;;;5076903;28;20048;-69
2023/10/02 02:19:05;;;;;;;26.57;17.93;;;17.20;99.90;;;;;;5076241;28;20079;-69
2023/10/02 02:21:32;;;;;;;27.43;18.77;;;17.20;99.90;;;;;;5076099;28;20141;-69
2023/10/02 02:24:03;;;;;;;29.47;18.07;;;17.20;99.90;;;;;;5076112;28;20131;-69
2023/10/02 02:26:31;;;;;;;30.83;18.40;;;17.30;99.90;;;;;;5076618;28;20037;-69
2023/10/02 02:28:57;;;;;;;29.53;19.33;;;17.20;99.90;;;;;;5076014;28;20084;-69
2023/10/02 02:31:29;;;;;;;29.30;19.63;;;17.30;99.90;;;;;;5075982;28;20056;-69
2023/10/02 02:34:03;;;;;;;31.07;19.07;;;17.30;99.90;;;;;;5076281;28;20040;-69
2023/10/02 02:36:35;;;;;;;30.15;18.63;;;17.30;99.90;;;;;;5075857;28;20499;-69
2023/10/02 02:39:15;;;;;;;27.93;18.03;;;17.30;99.90;;;;;;5076696;28;20045;-69
2023/10/02 02:42:18;;;;;;;33.50;19.83;;;17.30;99.90;;;;;;5076385;28;20044;-69
2023/10/02 02:44:48;;;;;;;31.30;20.03;;;17.30;99.90;;;;;;5076329;28;20044;-69
2023/10/02 02:47:16;;;;;;;32.43;20.07;;;17.30;99.90;;;;;;5075976;28;20048;-69
2023/10/02 02:49:58;;;;;;;31.70;20.07;;;17.30;99.90;;;;;;5075637;28;20045;-69
2023/10/02 02:52:32;;;;;;;30.60;19.70;;;17.30;99.90;;;;;;5075889;28;20123;-69
2023/10/02 02:55:03;;;;;;;33.23;19.70;;;17.30;99.90;;;;;;5075577;28;20102;-69
2023/10/02 02:57:34;;;;;;;34.53;21.83;;;17.30;99.90;;;;;;5075439;28;20120;-69
2023/10/02 03:02:46;;;;;;;35.97;20.77;;;17.30;99.90;;;;;;5075401;28;20048;-69
2023/10/02 03:05:13;;;;;;;33.50;21.33;;;17.30;99.90;;;;;;5075033;28;20489;-69
2023/10/02 03:07:42;;;;;;;32.83;20.13;;;17.20;99.90;;;;;;5075247;28;20037;-69
2023/10/02 03:10:11;;;;;;;30.93;20.87;;;17.20;99.90;;;;;;5075776;28;20051;-69
2023/10/02 03:12:44;;;;;;;31.07;19.50;;;17.20;99.90;;;;;;5075737;28;20044;-69
2023/10/02 03:15:12;;;;;;;31.23;20.03;;;17.20;99.90;;;;;;5075770;28;20106;-69
2023/10/02 03:17:41;;;;;;;37.70;22.40;;;17.20;99.90;;;;;;5074997;28;20095;-69
2023/10/02 03:20:24;;;;;;;33.87;21.57;;;17.20;99.90;;;;;;5073743;28;20092;-69
2023/10/02 03:22:55;;;;;;;37.23;22.50;;;17.20;99.90;;;;;;5075559;28;20127;-69
2023/10/02 03:25:28;;;;;;;31.27;20.37;;;17.10;99.90;;;;;;5074573;28;20132;-70
2023/10/02 03:27:57;;;;;;;37.67;23.03;;;17.10;99.90;;;;;;5075449;28;20044;-69
2023/10/02 03:30:35;;;;;;;38.97;23.30;;;17.00;99.90;;;;;;5074816;28;20041;-69
2023/10/02 03:33:16;;;;;;;36.43;22.83;;;17.00;99.90;;;;;;5074563;28;20496;-69
2023/10/02 03:35:42;;;;;;;28.87;19.73;;;17.00;99.90;;;;;;5075000;28;20044;-69
2023/10/02 03:38:08;;;;;;;35.43;21.40;;;16.90;99.90;;;;;;5075342;28;20437;-69
2023/10/02 03:40:34;;;;;;;34.23;20.80;;;16.90;99.90;;;;;;5075140;28;20080;-69
2023/10/02 03:43:18;;;;;;;32.27;20.17;;;16.90;99.90;;;;;;5074579;28;20051;-69
2023/10/02 03:45:45;;;;;;;34.73;22.30;;;16.90;99.90;;;;;;5075166;28;20059;-69
2023/10/02 03:48:15;;;;;;;32.33;20.83;;;16.90;99.90;;;;;;5074996;28;20052;-69
2023/10/02 03:50:41;;;;;;;32.37;21.40;;;16.90;99.90;;;;;;5074497;28;20083;-69
2023/10/02 03:53:28;;;;;;;29.23;19.77;;;16.90;99.90;;;;;;5074422;28;20048;-69
2023/10/02 03:58:56;;;;;;;33.30;20.37;;;16.90;99.90;;;;;;5074259;28;20052;-69
2023/10/02 04:01:29;;;;;;;31.37;20.73;;;16.80;99.90;;;;;;5073956;28;20048;-69
2023/10/02 04:06:42;;;;;;;33.70;20.77;;;16.80;99.90;;;;;;5074652;28;20040;-69
2023/10/02 04:11:42;;;;;;;30.40;20.63;;;16.80;99.90;;;;;;5074079;28;20049;-69
2023/10/02 04:14:18;;;;;;;31.07;20.13;;;16.80;99.90;;;;;;5073992;28;20052;-69
2023/10/02 04:16:46;;;;;;;32.90;21.07;;;16.80;99.90;;;;;;5074222;28;20149;-69
2023/10/02 04:19:24;;;;;;;32.20;20.90;;;16.80;99.90;;;;;;5073769;28;20096;-69
2023/10/02 04:21:56;;;;;;;30.53;20.37;;;16.80;99.90;;;;;;5073923;28;20052;-69
2023/10/02 04:24:25;;;;;;;32.87;20.57;;;16.80;99.90;;;;;;5073886;28;20083;-69
2023/10/02 04:27:14;;;;;;;31.20;20.80;;;16.80;99.90;;;;;;5073763;28;20044;-69
2023/10/02 04:29:48;;;;;;;34.50;20.23;;;16.80;99.90;;;;;;5073779;28;20055;-69
2023/10/02 04:32:15;;;;;;;31.67;20.45;;;16.90;99.90;;;;;;5074365;28;20439;-69
2023/10/02 04:34:50;;;;;;;35.60;20.40;;;16.90;99.90;;;;;;5073748;28;20138;-69
2023/10/02 04:37:19;;;;;;;34.80;20.00;;;16.80;99.90;;;;;;5072983;28;20111;-69
2023/10/02 04:39:53;;;;;;;28.40;19.53;;;16.90;99.90;;;;;;5073914;28;20469;-69
2023/10/02 04:42:21;;;;;;;29.77;18.60;;;16.90;99.90;;;;;;5074235;28;20052;-69
2023/10/02 04:44:56;;;;;;;28.67;19.57;;;16.80;99.90;;;;;;5074114;28;20048;-69
2023/10/02 04:47:23;;;;;;;31.50;19.30;;;16.80;99.90;;;;;;5073155;28;20550;-69
2023/10/02 04:52:58;;;;;;;28.93;18.27;;;16.80;99.90;;;;;;5073560;28;20084;-70
2023/10/02 04:55:32;;;;;;;28.97;18.53;;;16.80;99.90;;;;;;5073485;28;20542;-69
2023/10/02 04:58:08;;;;;;;29.67;18.87;;;16.80;99.90;;;;;;5073014;28;20144;-69
2023/10/02 05:03:36;;;;;;;31.17;20.07;;;16.80;99.90;;;;;;5073428;28;20048;-69
2023/10/02 05:06:03;;;;;;;36.03;20.23;;;16.70;99.90;;;;;;5073920;28;20385;-69
2023/10/02 05:08:37;;;;;;;32.33;19.70;;;16.70;99.90;;;;;;5073336;28;20101;-69
2023/10/02 05:11:07;;;;;;;30.88;19.55;;;16.70;99.90;;;;;;5073424;28;20055;-69
2023/10/02 05:16:37;;;;;;;;;;;16.70;99.90;;;;;;5074274;28;20044;-69
2023/10/02 05:19:04;;;;;;;29.67;19.60;;;16.60;99.90;;;;;;5072093;28;19928;-69
2023/10/02 05:21:38;;;;;;;34.40;20.83;;;16.60;99.90;;;;;;5072127;28;20057;-69
2023/10/02 05:24:11;;;;;;;31.20;20.00;;;16.60;99.90;;;;;;5073863;28;20052;-69
2023/10/02 05:26:42;;;;;;;31.23;19.50;;;16.50;99.90;;;;;;5073751;28;20044;-69
2023/10/02 05:29:12;;;;;;;34.33;20.77;;;16.60;99.90;;;;;;5073303;28;20127;-69
2023/10/02 05:31:41;;;;;;;30.40;18.60;;;16.50;99.90;;;;;;5073207;28;20091;-69
2023/10/02 05:34:13;;;;;;;36.63;21.33;;;16.50;99.90;;;;;;5073012;28;20044;-68
2023/10/02 05:39:42;;;;;;;30.65;20.40;;;16.50;99.90;;;;;;5073956;28;20056;-67
2023/10/02 05:42:13;;;;;;;31.43;20.97;;;16.40;99.90;;;;;;5073820;28;20048;-67
2023/10/02 05:44:39;;;;;;;36.90;20.10;;;16.50;99.90;;;;;;5073808;28;20052;-68
2023/10/02 05:47:05;;;;;;;33.60;20.47;;;16.50;99.90;;;;;;5073008;28;20057;-67
2023/10/02 05:49:32;;;;;;;31.83;20.87;;;16.50;99.90;;;;;;5075567;28;20045;-66
2023/10/02 05:52:00;;;;;;;29.73;20.77;;;16.50;99.90;;;;;;5076714;28;20110;-66
2023/10/02 05:54:29;;;;;;;30.27;20.03;;;16.50;99.90;;;;;;5077199;28;20110;-67
2023/10/02 05:57:08;;;;;;;33.63;21.97;;;16.60;99.90;;;;;;5076476;28;20485;-67
2023/10/02 05:59:44;;;;;;;29.73;20.87;;;16.60;99.90;;;;;;5076656;28;20037;-68
2023/10/02 06:02:19;;;;;;;34.07;21.33;;;16.60;99.90;;;;;;5092666;28;20048;-67
2023/10/02 06:04:49;;;;;;;32.73;20.67;;;16.60;99.90;;;;;;5075699;28;20079;-67
2023/10/02 06:07:40;;;;;;;34.20;20.50;;;16.60;99.90;;;;;;5076314;28;20447;-67
2023/10/02 06:10:25;;;;;;;31.77;20.87;;;16.60;99.90;;;;;;5076360;28;20048;-67
2023/10/02 06:13:08;;;;;;;34.90;20.13;;;16.70;99.90;;;;;;5075671;28;20041;-67
2023/10/02 06:15:46;;;;;;;33.80;22.93;;;16.70;99.90;;;;;;5075327;28;20083;-67
2023/10/02 06:18:27;;;;;;;32.67;21.00;;;16.70;99.90;;;;;;5077109;28;20119;-67
2023/10/02 06:21:03;;;;;;;32.50;21.07;;;16.70;99.90;;;;;;5077273;28;20500;-67
2023/10/02 06:23:39;;;;;;;38.13;21.57;;;16.70;99.90;;;;;;5076692;28;20090;-67
2023/10/02 06:26:09;;;;;;;30.60;20.63;;;16.70;99.90;;;;;;5076423;28;20087;-67
2023/10/02 06:28:38;;;;;;;31.40;21.27;;;16.70;99.90;;;;;;5076088;28;20083;-67
2023/10/02 06:31:06;;;;;;;32.53;21.17;;;16.70;99.90;;;;;;5075096;28;20060;-67
2023/10/02 06:33:36;;;;;;;32.70;21.60;;;16.70;99.90;;;;;;5075976;28;20131;-67
2023/10/02 06:36:08;;;;;;;32.60;21.40;;;16.80;99.90;;;;;;5075886;28;20044;-67
2023/10/02 06:38:35;;;;;;;31.47;20.70;;;16.80;99.90;;;;;;5075911;28;20056;-67
2023/10/02 06:41:08;;;;;;;31.90;20.83;;;16.80;99.90;;;;;;5075856;28;20071;-67
2023/10/02 06:43:35;;;;;;;37.37;22.43;;;16.80;99.90;;;;;;5076449;28;20443;-67
2023/10/02 06:46:15;;;;;;;31.47;19.80;;;16.80;99.90;;;;;;5075747;28;20045;-67
2023/10/02 06:48:46;;;;;;;30.20;20.10;;;16.90;99.90;;;;;;5076550;28;20071;-67
2023/10/02 06:51:16;;;;;;;29.77;20.10;;;16.90;99.90;;;;;;5076500;28;20051;-67
2023/10/02 06:53:42;;;;;;;33.20;20.43;;;16.90;99.90;;;;;;5075599;28;20051;-67
2023/10/02 06:56:12;;;;;;;29.33;19.60;;;17.00;99.90;;;;;;5075537;28;20048;-67
2023/10/02 06:58:56;;;;;;;29.43;18.90;;;17.00;99.90;;;;;;5075516;28;20074;-67
2023/10/02 07:01:28;;;;;;;32.00;20.93;;;17.10;99.90;;;;;;5074878;28;20048;-67
2023/10/02 07:03:56;;;;;;;33.57;20.20;;;17.10;99.90;;;;;;5075417;28;20048;-67
2023/10/02 07:06:26;;;;;;;31.00;19.77;;;17.20;99.90;;;;;;5075377;28;20500;-67
2023/10/02 07:11:51;;;;;;;30.07;20.77;;;17.40;99.90;;;;;;5052143;28;20084;-68
2023/10/02 07:14:18;;;;;;;27.83;19.27;;;17.60;99.90;;;;;;5075185;28;20046;-67
2023/10/02 07:16:47;;;;;;;31.97;19.57;;;17.80;99.90;;;;;;5075123;28;20393;-67
2023/10/02 07:19:13;;;;;;;33.73;21.13;;;18.00;99.90;;;;;;5075490;28;20056;-67
2023/10/02 07:21:40;;;;;;;29.13;20.27;;;18.10;99.90;;;;;;5075052;28;20109;-67
2023/10/02 07:24:27;;;;;;;30.50;19.57;;;18.10;99.90;;;;;;5074974;28;20052;-67
2023/10/02 07:26:53;;;;;;;29.20;19.63;;;18.10;99.90;;;;;;5075438;28;20408;-68
2023/10/02 07:29:19;;;;;;;27.93;18.83;;;18.20;99.90;;;;;;5074904;28;20044;-67
2023/10/02 07:31:45;;;;;;;27.97;18.87;;;18.30;99.90;;;;;;5074822;28;20526;-67
2023/10/02 07:34:12;;;;;;;26.03;17.33;;;18.40;99.90;;;;;;5075339;28;20186;-67
2023/10/02 07:36:44;;;;;;;25.60;17.00;;;18.50;99.90;;;;;;5075278;28;20178;-67
2023/10/02 07:42:00;;;;;;;26.70;18.48;;;18.70;99.90;;;;;;5074773;28;20056;-67
2023/10/02 07:44:36;;;;;;;27.90;19.73;;;18.70;99.90;;;;;;5074625;28;20087;-67
2023/10/02 07:47:24;;;;;;;33.57;20.73;;;18.70;99.90;;;;;;5074161;28;20442;-67
2023/10/02 07:49:58;;;;;;;30.53;20.40;;;18.70;99.90;;;;;;5074020;28;20516;-67
2023/10/02 07:52:29;;;;;;;31.33;19.63;;;18.80;99.90;;;;;;5074534;28;20044;-67
2023/10/02 07:54:59;;;;;;;31.70;20.80;;;18.90;99.90;;;;;;5074428;28;20052;-67
2023/10/02 07:57:32;;;;;;;30.20;20.80;;;19.00;99.90;;;;;;5074551;28;20362;-67
2023/10/02 08:00:33;;;;;;;30.90;18.33;;;19.00;99.90;;;;;;5073048;28;20048;-68
2023/10/02 08:02:52;;;;;;;27.80;19.00;;;19.10;99.90;;;;;;5074918;28;20060;-67
2023/10/02 08:05:20;;;;;;;31.17;19.73;;;19.10;99.90;;;;;;5074434;28;20117;-67
2023/10/02 08:07:46;;;;;;;33.20;21.50;;;19.10;99.90;;;;;;5072980;28;20048;-67
2023/10/02 08:10:13;;;;;;;34.13;21.07;;;19.10;99.90;;;;;;5074330;28;20053;-67
2023/10/02 08:12:54;;;;;;;31.90;20.97;;;19.10;99.90;;;;;;5073130;28;20049;-67
2023/10/02 08:15:26;;;;;;;30.07;20.33;;;19.00;99.90;;;;;;5074315;28;20071;-67
2023/10/02 08:20:32;;;;;;;31.47;21.07;;;19.00;99.90;;;;;;5074257;28;20060;-67
2023/10/02 08:23:01;;;;;;;35.43;22.30;;;19.10;99.90;;;;;;5074188;28;20481;-68
2023/10/02 08:25:27;;;;;;;34.77;20.67;;;19.10;99.90;;;;;;5074439;28;20131;-67
2023/10/02 08:27:56;;;;;;;33.00;20.67;;;19.20;99.90;;;;;;5073819;28;20091;-67
2023/10/02 08:30:35;;;;;;;34.47;20.73;;;19.30;99.90;;;;;;5074083;28;20080;-67
2023/10/02 08:33:18;;;;;;;34.83;22.40;;;19.40;99.90;;;;;;5073865;28;20059;-67
2023/10/02 08:35:47;;;;;;;32.57;22.30;;;19.40;99.90;;;;;;5074378;28;20049;-67
2023/10/02 08:38:22;;;;;;;34.10;22.00;;;19.40;99.90;;;;;;5073698;28;20098;-67
2023/10/02 08:40:57;;;;;;;;;;;19.40;99.90;;;;;;5074140;28;20492;-67
2023/10/02 08:43:27;;;;;;;36.73;22.53;;;19.30;99.90;;;;;;5074464;28;20015;-67
2023/10/02 08:45:53;;;;;;;38.50;23.03;;;19.20;99.90;;;;;;5073631;28;20044;-67
2023/10/02 08:48:25;;;;;;;35.67;22.23;;;19.20;99.90;;;;;;5073908;28;20056;-67
2023/10/02 08:50:57;;;;;;;30.90;19.93;;;19.20;99.90;;;;;;5073680;28;20489;-67
2023/10/02 08:53:23;;;;;;;36.40;23.80;;;19.20;99.90;;;;;;5074395;28;20384;-67
2023/10/02 08:56:01;;;;;;;38.47;22.67;;;19.40;99.90;;;;;;5073445;28;20049;-67
2023/10/02 08:58:27;;;;;;;34.27;22.80;;;19.40;99.90;;;;;;5074292;28;20049;-67
2023/10/02 09:03:42;;;;;;;31.83;22.50;;;19.60;99.90;;;;;;5073789;28;20052;-67
2023/10/02 09:06:35;;;;;;;34.37;21.50;;;19.70;99.90;;;;;;5074014;28;20053;-68
2023/10/02 09:09:21;;;;;;;35.90;22.93;;;19.80;99.90;;;;;;5073478;28;20575;-67
2023/10/02 09:12:08;;;;;;;37.43;23.57;;;19.90;99.90;;;;;;5072183;28;20051;-67
2023/10/02 09:17:07;;;;;;;42.20;24.43;;;19.90;99.90;;;;;;5073213;28;20091;-67
2023/10/02 09:19:39;;;;;;;36.40;22.63;;;19.90;99.90;;;;;;5073735;28;20126;-67
2023/10/02 09:22:13;;;;;;;38.13;22.73;;;19.90;99.90;;;;;;5073954;28;20408;-68
2023/10/02 09:24:41;;;;;;;38.88;21.33;;;19.90;99.90;;;;;;5076656;28;20056;-67
2023/10/02 09:27:23;;;;;;;35.97;21.30;;;19.90;99.90;;;;;;5077266;28;20037;-68
2023/10/02 09:30:16;;;;;;;37.83;21.70;;;19.80;99.90;;;;;;5076271;28;20469;-67
2023/10/02 09:32:49;;;;;;;35.77;22.93;;;19.80;99.90;;;;;;5077818;28;20055;-67
2023/10/02 09:35:32;;;;;;;36.00;21.93;;;19.80;99.90;;;;;;5077075;28;20508;-68
2023/10/02 09:38:02;;;;;;;33.83;22.30;;;19.80;99.90;;;;;;5077401;28;20045;-67
2023/10/02 09:43:22;;;;;;;37.20;23.90;;;19.90;99.90;;;;;;5077467;28;20057;-67
2023/10/02 09:45:49;;;;;;;36.70;21.20;;;19.90;99.90;;;;;;5075897;28;20512;-67
2023/10/02 09:51:14;;;;;;;33.63;21.30;;;19.90;99.90;;;;;;5076752;28;20052;-68
2023/10/02 09:54:04;;;;;;;35.00;23.10;;;19.90;99.90;;;;;;5076796;28;20504;-67
2023/10/02 09:57:04;;;;;;;35.60;22.33;;;19.90;99.90;;;;;;5077158;28;20036;-67
2023/10/02 09:59:46;;;;;;;34.57;21.43;;;20.00;99.90;;;;;;5074268;28;20106;-67
2023/10/02 10:05:02;;;;;;;37.47;23.10;;;20.10;99.90;;;;;;5076551;28;20047;-67
2023/10/02 10:07:51;;;;;;;36.03;23.27;;;20.10;99.90;;;;;;5076355;28;20043;-67
2023/10/02 10:10:47;;;;;;;37.90;21.97;;;20.10;99.90;;;;;;5076867;28;20052;-67
2023/10/02 10:13:37;;;;;;;34.85;22.42;;;20.10;99.90;;;;;;5076936;28;20044;-67
2023/10/02 10:16:23;;;;;;;37.70;23.27;;;20.20;99.90;;;;;;5076536;28;20373;-67
2023/10/02 10:21:57;;;;;;;36.23;22.83;;;20.20;99.90;;;;;;5076151;28;20048;-67
2023/10/02 10:24:33;;;;;;;37.00;20.90;;;20.30;99.90;;;;;;5076174;28;20099;-68
2023/10/02 10:26:58;;;;;;;32.70;20.53;;;20.50;99.90;;;;;;5076877;28;20040;-67
2023/10/02 10:29:38;;;;;;;31.97;20.03;;;20.60;99.90;;;;;;5075982;28;20508;-67
2023/10/02 10:32:23;;;;;;;32.57;20.10;;;20.60;99.90;;;;;;5075966;28;20056;-67
2023/10/02 10:35:11;;;;;;;41.03;23.00;;;20.60;99.90;;;;;;5075496;28;20097;-67
2023/10/02 10:37:46;;;;;;;31.70;20.73;;;20.50;99.90;;;;;;5077190;28;20360;-67
2023/10/02 10:46:17;;;;;;;32.27;21.20;;;20.50;99.90;;;;;;5075724;28;20052;-68
2023/10/02 10:48:47;;;;;;;33.57;21.00;;;20.50;99.90;;;;;;5075638;28;20048;-67
2023/10/02 10:51:22;;;;;;;35.83;20.73;;;20.50;99.90;;;;;;5076745;28;20397;-67
2023/10/02 10:53:52;;;;;;;30.67;20.10;;;20.60;99.90;;;;;;5075621;28;20472;-67
2023/10/02 10:56:19;;;;;;;26.93;17.47;;;20.60;99.90;;;;;;5075414;28;20051;-68
2023/10/02 10:58:46;;;;;;;31.67;21.23;;;20.70;99.90;;;;;;5074334;28;20102;-68
2023/10/02 11:01:14;;;;;;;28.77;18.77;;;20.80;99.90;;;;;;5075670;28;20109;-67
2023/10/02 11:03:40;;;;;;;30.43;19.07;;;20.80;99.90;;;;;;5076182;28;20440;-68
2023/10/02 11:06:08;;;;;;;33.00;20.00;;;20.80;99.90;;;;;;5074336;28;20048;-67
2023/10/02 11:08:37;;;;;;;26.57;17.60;;;20.80;99.90;;;;;;5073980;28;20520;-67
2023/10/02 11:11:18;;;;;;;27.47;16.80;;;20.80;99.90;;;;;;5075247;28;20048;-67
2023/10/02 11:16:30;;;;;;;29.10;17.10;;;20.90;99.90;;;;;;5075647;28;20056;-67
2023/10/02 11:19:34;;;;;;;28.40;16.53;;;21.00;99.90;;;;;;5075650;28;20040;-67
2023/10/02 11:22:21;;;;;;;30.00;17.63;;;21.00;99.90;;;;;;5075104;28;20106;-67
2023/10/02 11:24:52;;;;;;;27.70;18.57;;;21.10;99.90;;;;;;5074983;28;20051;-67
2023/10/02 11:27:20;;;;;;;32.70;18.80;;;21.10;99.90;;;;;;5075275;28;20064;-67
2023/10/02 11:30:02;;;;;;;27.80;17.77;;;21.10;99.90;;;;;;5075381;28;20055;-68
2023/10/02 11:32:58;;;;;;;26.87;18.40;;;21.10;99.90;;;;;;5074099;28;20060;-68
2023/10/02 11:35:37;;;;;;;29.03;17.73;;;21.20;99.90;;;;;;5072149;28;20060;-68
2023/10/02 11:38:07;;;;;;;27.63;17.30;;;21.20;99.90;;;;;;5074377;28;20048;-68
2023/10/02 11:40:34;;;;;;;33.03;19.17;;;21.20;99.90;;;;;;5074301;28;20485;-68
2023/10/02 11:42:59;;;;;;;29.03;18.50;;;21.20;99.90;;;;;;5074570;28;20049;-67
2023/10/02 11:45:32;;;;;;;27.83;19.03;;;21.20;99.90;;;;;;5074538;28;20058;-68
2023/10/02 11:47:58;;;;;;;29.13;17.23;;;21.20;99.90;;;;;;5075090;28;20084;-67
2023/10/02 11:50:24;;;;;;;27.60;17.90;;;21.20;99.90;;;;;;5075020;28;20082;-68
2023/10/02 11:52:51;;;;;;;29.73;18.83;;;21.20;99.90;;;;;;5074958;28;20052;-68
2023/10/02 11:55:18;;;;;;;27.13;17.40;;;21.20;99.90;;;;;;5075135;28;20105;-67
2023/10/02 11:57:51;;;;;;;28.23;19.57;;;21.10;99.90;;;;;;5074219;28;20040;-68
2023/10/02 12:00:22;;;;;;;26.73;18.40;;;21.10;99.90;;;;;;5075058;28;20044;-67
2023/10/02 12:02:49;;;;;;;32.17;20.73;;;21.20;99.90;;;;;;5074068;28;20084;-67
2023/10/02 12:05:17;;;;;;;31.63;19.97;;;21.20;99.90;;;;;;5074185;28;20091;-67
2023/10/02 12:07:44;;;;;;;29.83;19.60;;;21.30;99.90;;;;;;5074125;28;20044;-68
2023/10/02 12:10:15;;;;;;;30.43;18.83;;;21.20;99.90;;;;;;5074081;28;20461;-68
2023/10/02 12:12:45;;;;;;;27.77;19.03;;;21.30;99.90;;;;;;5074405;28;20051;-68
2023/10/02 12:15:14;;;;;;;28.20;18.50;;;21.20;99.90;;;;;;5074017;28;20086;-67
2023/10/02 12:17:40;;;;;;;26.83;18.30;;;21.30;99.90;;;;;;5073867;28;20047;-67
2023/10/02 12:20:10;;;;;;;35.20;19.47;;;21.30;99.90;;;;;;5073925;28;20053;-68
2023/10/02 12:22:37;;;;;;;29.90;18.57;;;21.30;99.90;;;;;;5074410;28;20408;-68
2023/10/02 12:25:04;;;;;;;31.73;18.37;;;21.30;99.90;;;;;;5074630;28;20123;-67
2023/10/02 12:27:32;;;;;;;25.53;17.73;;;21.40;99.90;;;;;;5073773;28;20048;-68
2023/10/02 12:29:58;;;;;;;27.50;17.50;;;21.40;99.90;;;;;;5073763;28;20058;-68
2023/10/02 12:32:27;;;;;;;28.27;17.13;;;21.40;99.90;;;;;;5073714;28;20044;-68
2023/10/02 12:34:53;;;;;;;29.83;16.93;;;21.40;99.90;;;;;;5074244;28;20391;-67
2023/10/02 12:37:20;;;;;;;29.80;16.90;;;21.40;99.90;;;;;;5073612;28;20079;-68
2023/10/02 12:39:47;;;;;;;27.43;17.60;;;21.40;99.90;;;;;;5074413;28;20079;-67
2023/10/02 12:42:14;;;;;;;33.60;17.10;;;21.40;99.90;;;;;;5072418;28;20053;-68
2023/10/02 12:44:41;;;;;;;26.53;16.20;;;21.40;99.90;;;;;;5074128;28;20044;-68
2023/10/02 12:47:07;;;;;;;26.00;16.57;;;21.40;99.90;;;;;;5074396;28;20056;-68
2023/10/02 12:49:35;;;;;;;26.27;15.80;;;21.40;99.90;;;;;;5074029;28;20421;-67
2023/10/02 12:52:00;;;;;;;25.93;16.27;;;21.30;99.90;;;;;;5073544;28;20059;-67
2023/10/02 12:54:27;;;;;;;27.07;16.10;;;21.40;99.90;;;;;;5073506;28;20045;-68
2023/10/02 12:56:53;;;;;;;28.83;17.93;;;21.40;99.90;;;;;;5073326;28;20076;-67
2023/10/02 12:59:19;;;;;;;25.73;17.53;;;21.40;99.90;;;;;;5071574;28;20052;-68
2023/10/02 13:01:45;;;;;;;29.20;17.37;;;21.40;99.90;;;;;;5073410;28;20050;-67
2023/10/02 13:04:12;;;;;;;28.40;16.77;;;21.40;99.90;;;;;;5073889;28;20120;-67
2023/10/02 13:06:38;;;;;;;27.60;17.70;;;21.50;99.90;;;;;;5073658;28;20049;-68
2023/10/02 13:09:10;;;;;;;28.40;17.27;;;21.50;99.90;;;;;;5073331;28;20607;-67
2023/10/02 13:11:45;;;;;;;26.80;17.53;;;21.50;99.90;;;;;;5073305;28;20044;-68
2023/10/02 13:14:16;;;;;;;29.73;17.23;;;21.40;99.90;;;;;;5073651;28;20528;-67
2023/10/02 13:16:43;;;;;;;30.53;17.97;;;21.50;99.90;;;;;;5073567;28;20056;-68
2023/10/02 13:19:09;;;;;;;27.23;17.30;;;21.50;99.90;;;;;;5073581;28;20048;-67
2023/10/02 13:21:42;;;;;;;29.37;17.37;;;21.50;99.90;;;;;;5074033;28;20138;-68
2023/10/02 13:24:15;;;;;;;25.57;17.10;;;21.50;99.90;;;;;;5073276;28;20048;-68
2023/10/02 13:26:41;;;;;;;27.90;16.27;;;21.60;99.90;;;;;;5073208;28;20044;-68
2023/10/02 13:29:07;;;;;;;26.93;16.17;;;21.60;99.90;;;;;;5073020;28;20055;-68
2023/10/02 13:31:33;;;;;;;28.63;16.30;;;21.60;99.90;;;;;;5073097;28;20045;-68
2023/10/02 13:34:00;;;;;;;32.83;16.93;;;21.70;99.90;;;;;;5073383;28;20045;-68
2023/10/02 13:36:26;;;;;;;24.93;16.17;;;21.70;99.90;;;;;;5071718;28;20051;-68
2023/10/02 13:38:56;;;;;;;27.10;17.27;;;21.70;99.90;;;;;;5073008;28;20044;-68
2023/10/02 13:41:24;;;;;;;25.03;17.20;;;21.70;99.90;;;;;;5073059;28;20048;-67
2023/10/02 13:43:52;;;;;;;28.17;17.23;;;21.70;99.90;;;;;;5073060;28;20052;-68
2023/10/02 13:46:20;;;;;;;26.20;17.00;;;21.70;99.90;;;;;;5073511;28;20159;-68
2023/10/02 13:48:52;;;;;;;27.43;16.93;;;21.60;99.90;;;;;;5072954;28;20045;-67
2023/10/02 13:51:20;;;;;;;28.70;16.50;;;21.60;99.90;;;;;;5072953;28;20041;-68
2023/10/02 13:53:49;;;;;;;24.73;16.00;;;21.60;99.90;;;;;;5071922;28;20063;-68
2023/10/02 13:56:20;;;;;;;25.43;15.93;;;21.60;99.90;;;;;;5072618;28;20135;-67
2023/10/02 13:58:48;;;;;;;26.77;15.77;;;21.60;99.90;;;;;;5072926;28;20045;-68